sensor_id;sensor_type;location;lat;lon;timestamp;P1;durP1;ratioP1;P2;durP2;ratioP2
17858;SDS011;35426;30.698;104.050;2023-12-28T00:01:05;358.23;;;129.37;;
17858;SDS011;35426;30.698;104.050;2023-12-28T00:03:40;340.70;;;127.87;;
17858;SDS011;35426;30.698;104.050;2023-12-28T00:06:13;329.70;;;125.43;;
17858;SDS011;35426;30.698;104.050;2023-12-28T00:08:47;324.77;;;126.13;;
17858;SDS011;35426;30.698;104.050;2023-12-28T00:11:35;339.97;;;128.70;;
17858;SDS011;35426;30.698;104.050;2023-12-28T00:14:09;343.60;;;126.27;;
17858;SDS011;35426;30.698;104.050;2023-12-28T00:16:46;348.27;;;127.90;;
17858;SDS011;35426;30.698;104.050;2023-12-28T00:19:19;337.63;;;127.97;;
17858;SDS011;35426;30.698;104.050;2023-12-28T00:21:54;359.53;;;130.20;;
17858;SDS011;35426;30.698;104.050;2023-12-28T00:24:27;349.97;;;129.77;;
17858;SDS011;35426;30.698;104.050;2023-12-28T00:27:03;333.13;;;129.13;;
17858;SDS011;35426;30.698;104.050;2023-12-28T00:29:38;342.23;;;128.83;;
17858;SDS011;35426;30.698;104.050;2023-12-28T00:32:17;354.27;;;128.67;;
17858;SDS011;35426;30.698;104.050;2023-12-28T00:34:50;363.17;;;132.67;;
17858;SDS011;35426;30.698;104.050;2023-12-28T00:37:24;356.17;;;131.23;;
17858;SDS011;35426;30.698;104.050;2023-12-28T00:40:01;343.67;;;126.83;;
17858;SDS011;35426;30.698;104.050;2023-12-28T00:42:36;333.97;;;125.17;;
17858;SDS011;35426;30.698;104.050;2023-12-28T00:45:11;349.70;;;127.23;;
17858;SDS011;35426;30.698;104.050;2023-12-28T00:47:47;355.63;;;128.47;;
17858;SDS011;35426;30.698;104.050;2023-12-28T00:50:22;328.17;;;122.37;;
17858;SDS011;35426;30.698;104.050;2023-12-28T00:52:57;337.67;;;125.57;;
17858;SDS011;35426;30.698;104.050;2023-12-28T00:55:32;347.53;;;123.87;;
17858;SDS011;35426;30.698;104.050;2023-12-28T00:58:07;348.93;;;126.80;;
17858;SDS011;35426;30.698;104.050;2023-12-28T01:00:41;341.17;;;125.23;;
17858;SDS011;35426;30.698;104.050;2023-12-28T01:03:17;347.50;;;124.37;;
17858;SDS011;35426;30.698;104.050;2023-12-28T01:05:53;326.47;;;122.37;;
17858;SDS011;35426;30.698;104.050;2023-12-28T01:08:31;330.30;;;121.40;;
17858;SDS011;35426;30.698;104.050;2023-12-28T01:11:08;334.97;;;123.23;;
17858;SDS011;35426;30.698;104.050;2023-12-28T01:13:45;330.40;;;120.63;;
17858;SDS011;35426;30.698;104.050;2023-12-28T01:16:22;326.23;;;118.97;;
17858;SDS011;35426;30.698;104.050;2023-12-28T01:18:58;319.57;;;119.27;;
17858;SDS011;35426;30.698;104.050;2023-12-28T01:21:32;317.00;;;120.53;;
17858;SDS011;35426;30.698;104.050;2023-12-28T01:24:06;317.63;;;118.93;;
17858;SDS011;35426;30.698;104.050;2023-12-28T01:26:41;334.07;;;120.10;;
17858;SDS011;35426;30.698;104.050;2023-12-28T01:29:16;335.30;;;120.27;;
17858;SDS011;35426;30.698;104.050;2023-12-28T01:31:51;338.27;;;122.27;;
17858;SDS011;35426;30.698;104.050;2023-12-28T01:34:28;326.13;;;119.87;;
17858;SDS011;35426;30.698;104.050;2023-12-28T01:37:02;315.43;;;116.67;;
17858;SDS011;35426;30.698;104.050;2023-12-28T01:39:37;331.03;;;123.07;;
17858;SDS011;35426;30.698;104.050;2023-12-28T01:42:11;319.57;;;120.40;;
17858;SDS011;35426;30.698;104.050;2023-12-28T01:44:47;322.77;;;119.17;;
17858;SDS011;35426;30.698;104.050;2023-12-28T01:47:20;329.57;;;120.37;;
17858;SDS011;35426;30.698;104.050;2023-12-28T01:49:57;329.63;;;120.83;;
17858;SDS011;35426;30.698;104.050;2023-12-28T01:52:32;317.97;;;118.00;;
17858;SDS011;35426;30.698;104.050;2023-12-28T01:55:07;318.07;;;117.33;;
17858;SDS011;35426;30.698;104.050;2023-12-28T01:57:42;331.57;;;120.87;;
17858;SDS011;35426;30.698;104.050;2023-12-28T02:00:17;317.83;;;117.00;;
17858;SDS011;35426;30.698;104.050;2023-12-28T02:02:52;333.80;;;119.80;;
17858;SDS011;35426;30.698;104.050;2023-12-28T02:05:31;302.63;;;114.97;;
17858;SDS011;35426;30.698;104.050;2023-12-28T02:08:06;313.67;;;116.77;;
17858;SDS011;35426;30.698;104.050;2023-12-28T02:10:41;322.40;;;118.57;;
17858;SDS011;35426;30.698;104.050;2023-12-28T02:13:15;318.33;;;118.27;;
17858;SDS011;35426;30.698;104.050;2023-12-28T02:15:50;306.27;;;117.83;;
17858;SDS011;35426;30.698;104.050;2023-12-28T02:18:27;302.33;;;114.17;;
17858;SDS011;35426;30.698;104.050;2023-12-28T02:21:09;310.53;;;112.93;;
17858;SDS011;35426;30.698;104.050;2023-12-28T02:23:49;319.13;;;116.43;;
17858;SDS011;35426;30.698;104.050;2023-12-28T02:26:24;286.70;;;109.93;;
17858;SDS011;35426;30.698;104.050;2023-12-28T02:28:59;293.27;;;109.87;;
17858;SDS011;35426;30.698;104.050;2023-12-28T02:31:35;306.43;;;113.03;;
17858;SDS011;35426;30.698;104.050;2023-12-28T02:34:15;292.70;;;109.93;;
17858;SDS011;35426;30.698;104.050;2023-12-28T02:36:55;285.83;;;108.57;;
17858;SDS011;35426;30.698;104.050;2023-12-28T02:39:32;278.53;;;106.17;;
17858;SDS011;35426;30.698;104.050;2023-12-28T02:42:08;283.87;;;107.53;;
17858;SDS011;35426;30.698;104.050;2023-12-28T02:44:43;293.77;;;111.23;;
17858;SDS011;35426;30.698;104.050;2023-12-28T02:47:19;300.43;;;110.13;;
17858;SDS011;35426;30.698;104.050;2023-12-28T02:49:54;288.80;;;110.57;;
17858;SDS011;35426;30.698;104.050;2023-12-28T02:52:29;291.13;;;108.83;;
17858;SDS011;35426;30.698;104.050;2023-12-28T02:55:03;289.80;;;111.47;;
17858;SDS011;35426;30.698;104.050;2023-12-28T02:57:45;284.93;;;112.57;;
17858;SDS011;35426;30.698;104.050;2023-12-28T03:00:19;294.53;;;111.20;;
17858;SDS011;35426;30.698;104.050;2023-12-28T03:02:55;296.93;;;112.67;;
17858;SDS011;35426;30.698;104.050;2023-12-28T03:05:29;293.57;;;114.10;;
17858;SDS011;35426;30.698;104.050;2023-12-28T03:08:04;283.90;;;111.47;;
17858;SDS011;35426;30.698;104.050;2023-12-28T03:10:39;296.30;;;110.47;;
17858;SDS011;35426;30.698;104.050;2023-12-28T03:13:16;311.87;;;113.67;;
17858;SDS011;35426;30.698;104.050;2023-12-28T03:15:51;306.03;;;113.07;;
17858;SDS011;35426;30.698;104.050;2023-12-28T03:18:24;283.17;;;108.20;;
17858;SDS011;35426;30.698;104.050;2023-12-28T03:20:58;298.57;;;111.63;;
17858;SDS011;35426;30.698;104.050;2023-12-28T03:23:34;288.43;;;107.70;;
17858;SDS011;35426;30.698;104.050;2023-12-28T03:26:07;287.27;;;109.90;;
17858;SDS011;35426;30.698;104.050;2023-12-28T03:28:44;297.57;;;111.77;;
17858;SDS011;35426;30.698;104.050;2023-12-28T03:31:21;281.30;;;106.07;;
17858;SDS011;35426;30.698;104.050;2023-12-28T03:33:55;292.53;;;108.00;;
17858;SDS011;35426;30.698;104.050;2023-12-28T03:36:29;295.43;;;110.90;;
17858;SDS011;35426;30.698;104.050;2023-12-28T03:39:07;285.00;;;106.13;;
17858;SDS011;35426;30.698;104.050;2023-12-28T03:41:41;299.33;;;108.63;;
17858;SDS011;35426;30.698;104.050;2023-12-28T03:44:17;286.57;;;110.10;;
17858;SDS011;35426;30.698;104.050;2023-12-28T03:46:54;275.93;;;108.90;;
17858;SDS011;35426;30.698;104.050;2023-12-28T03:49:29;284.33;;;107.97;;
17858;SDS011;35426;30.698;104.050;2023-12-28T03:52:05;292.20;;;108.83;;
17858;SDS011;35426;30.698;104.050;2023-12-28T03:54:39;288.70;;;108.73;;
17858;SDS011;35426;30.698;104.050;2023-12-28T03:57:13;288.87;;;109.03;;
17858;SDS011;35426;30.698;104.050;2023-12-28T03:59:49;280.20;;;109.90;;
17858;SDS011;35426;30.698;104.050;2023-12-28T04:02:23;286.93;;;111.30;;
17858;SDS011;35426;30.698;104.050;2023-12-28T04:05:02;287.67;;;108.53;;
17858;SDS011;35426;30.698;104.050;2023-12-28T04:07:38;290.43;;;110.53;;
17858;SDS011;35426;30.698;104.050;2023-12-28T04:10:19;289.57;;;111.17;;
17858;SDS011;35426;30.698;104.050;2023-12-28T04:13:01;292.43;;;108.83;;
17858;SDS011;35426;30.698;104.050;2023-12-28T04:15:38;295.93;;;110.30;;
17858;SDS011;35426;30.698;104.050;2023-12-28T04:18:14;296.70;;;109.07;;
17858;SDS011;35426;30.698;104.050;2023-12-28T04:20:50;291.03;;;108.90;;
17858;SDS011;35426;30.698;104.050;2023-12-28T04:23:25;275.63;;;106.37;;
17858;SDS011;35426;30.698;104.050;2023-12-28T04:25:58;293.90;;;109.03;;
17858;SDS011;35426;30.698;104.050;2023-12-28T04:28:33;284.43;;;107.80;;
17858;SDS011;35426;30.698;104.050;2023-12-28T04:31:08;275.00;;;106.73;;
17858;SDS011;35426;30.698;104.050;2023-12-28T04:33:44;274.47;;;104.97;;
17858;SDS011;35426;30.698;104.050;2023-12-28T04:36:23;286.57;;;108.23;;
17858;SDS011;35426;30.698;104.050;2023-12-28T04:38:57;273.00;;;107.40;;
17858;SDS011;35426;30.698;104.050;2023-12-28T04:41:33;306.77;;;111.93;;
17858;SDS011;35426;30.698;104.050;2023-12-28T04:44:08;279.77;;;111.07;;
17858;SDS011;35426;30.698;104.050;2023-12-28T04:46:44;288.93;;;109.97;;
17858;SDS011;35426;30.698;104.050;2023-12-28T04:49:18;288.30;;;111.17;;
17858;SDS011;35426;30.698;104.050;2023-12-28T04:51:53;297.07;;;112.43;;
17858;SDS011;35426;30.698;104.050;2023-12-28T04:54:28;288.83;;;112.17;;
17858;SDS011;35426;30.698;104.050;2023-12-28T04:57:03;299.77;;;114.83;;
17858;SDS011;35426;30.698;104.050;2023-12-28T04:59:38;312.03;;;112.43;;
17858;SDS011;35426;30.698;104.050;2023-12-28T05:02:14;313.03;;;113.07;;
17858;SDS011;35426;30.698;104.050;2023-12-28T05:04:48;298.30;;;114.43;;
17858;SDS011;35426;30.698;104.050;2023-12-28T05:07:22;317.27;;;120.30;;
17858;SDS011;35426;30.698;104.050;2023-12-28T05:09:56;311.10;;;119.67;;
17858;SDS011;35426;30.698;104.050;2023-12-28T05:12:30;319.07;;;120.73;;
17858;SDS011;35426;30.698;104.050;2023-12-28T05:15:12;312.07;;;120.47;;
17858;SDS011;35426;30.698;104.050;2023-12-28T05:17:50;312.03;;;120.90;;
17858;SDS011;35426;30.698;104.050;2023-12-28T05:20:24;313.57;;;118.87;;
17858;SDS011;35426;30.698;104.050;2023-12-28T05:22:58;312.10;;;122.27;;
17858;SDS011;35426;30.698;104.050;2023-12-28T05:25:34;331.33;;;125.57;;
17858;SDS011;35426;30.698;104.050;2023-12-28T05:28:07;333.83;;;125.30;;
17858;SDS011;35426;30.698;104.050;2023-12-28T05:30:43;330.80;;;125.67;;
17858;SDS011;35426;30.698;104.050;2023-12-28T05:33:22;350.33;;;125.33;;
17858;SDS011;35426;30.698;104.050;2023-12-28T05:35:57;329.97;;;123.47;;
17858;SDS011;35426;30.698;104.050;2023-12-28T05:38:31;331.17;;;126.43;;
17858;SDS011;35426;30.698;104.050;2023-12-28T05:41:05;337.67;;;125.23;;
17858;SDS011;35426;30.698;104.050;2023-12-28T05:43:41;325.07;;;127.07;;
17858;SDS011;35426;30.698;104.050;2023-12-28T05:46:15;321.17;;;124.13;;
17858;SDS011;35426;30.698;104.050;2023-12-28T05:48:51;345.13;;;128.17;;
17858;SDS011;35426;30.698;104.050;2023-12-28T05:51:26;336.00;;;123.67;;
17858;SDS011;35426;30.698;104.050;2023-12-28T05:54:00;319.70;;;123.27;;
17858;SDS011;35426;30.698;104.050;2023-12-28T05:56:36;324.57;;;120.97;;
17858;SDS011;35426;30.698;104.050;2023-12-28T05:59:12;320.60;;;119.77;;
17858;SDS011;35426;30.698;104.050;2023-12-28T06:01:49;321.87;;;118.10;;
17858;SDS011;35426;30.698;104.050;2023-12-28T06:04:30;314.77;;;119.30;;
17858;SDS011;35426;30.698;104.050;2023-12-28T06:07:06;303.73;;;114.67;;
17858;SDS011;35426;30.698;104.050;2023-12-28T06:09:41;294.77;;;114.57;;
17858;SDS011;35426;30.698;104.050;2023-12-28T06:12:15;315.67;;;117.27;;
17858;SDS011;35426;30.698;104.050;2023-12-28T06:14:50;305.07;;;110.03;;
17858;SDS011;35426;30.698;104.050;2023-12-28T06:17:26;301.47;;;111.00;;
17858;SDS011;35426;30.698;104.050;2023-12-28T06:20:04;299.83;;;111.37;;
17858;SDS011;35426;30.698;104.050;2023-12-28T06:22:40;287.10;;;110.80;;
17858;SDS011;35426;30.698;104.050;2023-12-28T06:25:18;295.20;;;108.40;;
17858;SDS011;35426;30.698;104.050;2023-12-28T06:27:54;283.50;;;107.90;;
17858;SDS011;35426;30.698;104.050;2023-12-28T06:30:28;296.50;;;108.03;;
17858;SDS011;35426;30.698;104.050;2023-12-28T06:33:02;283.77;;;106.43;;
17858;SDS011;35426;30.698;104.050;2023-12-28T06:35:39;284.37;;;106.60;;
17858;SDS011;35426;30.698;104.050;2023-12-28T06:38:15;274.10;;;110.30;;
17858;SDS011;35426;30.698;104.050;2023-12-28T06:40:49;279.97;;;108.27;;
17858;SDS011;35426;30.698;104.050;2023-12-28T06:43:23;288.67;;;110.77;;
17858;SDS011;35426;30.698;104.050;2023-12-28T06:45:57;278.07;;;108.23;;
17858;SDS011;35426;30.698;104.050;2023-12-28T06:48:31;299.30;;;109.30;;
17858;SDS011;35426;30.698;104.050;2023-12-28T06:51:12;289.60;;;111.60;;
17858;SDS011;35426;30.698;104.050;2023-12-28T06:53:53;283.50;;;110.40;;
17858;SDS011;35426;30.698;104.050;2023-12-28T06:56:26;284.33;;;109.00;;
17858;SDS011;35426;30.698;104.050;2023-12-28T06:59:00;292.40;;;109.10;;
17858;SDS011;35426;30.698;104.050;2023-12-28T07:01:35;281.80;;;108.30;;
17858;SDS011;35426;30.698;104.050;2023-12-28T07:04:09;300.10;;;114.93;;
17858;SDS011;35426;30.698;104.050;2023-12-28T07:06:47;316.53;;;120.03;;
17858;SDS011;35426;30.698;104.050;2023-12-28T07:09:21;289.10;;;112.53;;
17858;SDS011;35426;30.698;104.050;2023-12-28T07:11:56;277.33;;;109.77;;
17858;SDS011;35426;30.698;104.050;2023-12-28T07:14:32;284.10;;;110.23;;
17858;SDS011;35426;30.698;104.050;2023-12-28T07:17:07;300.13;;;113.17;;
17858;SDS011;35426;30.698;104.050;2023-12-28T07:19:41;289.03;;;111.53;;
17858;SDS011;35426;30.698;104.050;2023-12-28T07:22:19;296.20;;;110.90;;
17858;SDS011;35426;30.698;104.050;2023-12-28T07:24:55;292.73;;;112.67;;
17858;SDS011;35426;30.698;104.050;2023-12-28T07:27:30;290.17;;;112.33;;
17858;SDS011;35426;30.698;104.050;2023-12-28T07:30:04;289.10;;;112.83;;
17858;SDS011;35426;30.698;104.050;2023-12-28T07:32:40;291.37;;;113.73;;
17858;SDS011;35426;30.698;104.050;2023-12-28T07:35:14;294.30;;;112.23;;
17858;SDS011;35426;30.698;104.050;2023-12-28T07:37:51;308.90;;;112.60;;
17858;SDS011;35426;30.698;104.050;2023-12-28T07:40:26;295.83;;;113.37;;
17858;SDS011;35426;30.698;104.050;2023-12-28T07:43:01;303.13;;;112.93;;
17858;SDS011;35426;30.698;104.050;2023-12-28T07:45:35;293.57;;;113.83;;
17858;SDS011;35426;30.698;104.050;2023-12-28T07:48:11;290.07;;;111.97;;
17858;SDS011;35426;30.698;104.050;2023-12-28T07:50:46;296.67;;;112.53;;
17858;SDS011;35426;30.698;104.050;2023-12-28T07:53:23;307.77;;;116.00;;
17858;SDS011;35426;30.698;104.050;2023-12-28T07:55:57;302.33;;;113.43;;
17858;SDS011;35426;30.698;104.050;2023-12-28T07:58:35;287.90;;;113.93;;
17858;SDS011;35426;30.698;104.050;2023-12-28T08:01:10;292.53;;;114.73;;
17858;SDS011;35426;30.698;104.050;2023-12-28T08:03:44;303.33;;;116.17;;
17858;SDS011;35426;30.698;104.050;2023-12-28T08:06:20;298.77;;;114.63;;
17858;SDS011;35426;30.698;104.050;2023-12-28T08:08:56;315.47;;;117.07;;
17858;SDS011;35426;30.698;104.050;2023-12-28T08:11:30;314.63;;;116.97;;
17858;SDS011;35426;30.698;104.050;2023-12-28T08:14:06;310.43;;;115.30;;
17858;SDS011;35426;30.698;104.050;2023-12-28T08:16:40;305.43;;;115.63;;
17858;SDS011;35426;30.698;104.050;2023-12-28T08:19:14;303.97;;;113.53;;
17858;SDS011;35426;30.698;104.050;2023-12-28T08:21:48;299.73;;;114.37;;
17858;SDS011;35426;30.698;104.050;2023-12-28T08:24:25;306.43;;;114.90;;
17858;SDS011;35426;30.698;104.050;2023-12-28T08:27:00;313.87;;;119.83;;
17858;SDS011;35426;30.698;104.050;2023-12-28T08:29:35;311.03;;;118.73;;
17858;SDS011;35426;30.698;104.050;2023-12-28T08:32:09;317.13;;;117.63;;
17858;SDS011;35426;30.698;104.050;2023-12-28T08:34:45;314.80;;;120.10;;
17858;SDS011;35426;30.698;104.050;2023-12-28T08:37:20;316.73;;;120.63;;
17858;SDS011;35426;30.698;104.050;2023-12-28T08:39:59;308.37;;;117.63;;
17858;SDS011;35426;30.698;104.050;2023-12-28T08:42:33;333.57;;;123.17;;
17858;SDS011;35426;30.698;104.050;2023-12-28T08:45:09;317.20;;;120.90;;
17858;SDS011;35426;30.698;104.050;2023-12-28T08:47:45;315.40;;;119.10;;
17858;SDS011;35426;30.698;104.050;2023-12-28T08:50:19;325.87;;;121.97;;
17858;SDS011;35426;30.698;104.050;2023-12-28T08:52:54;315.47;;;118.20;;
17858;SDS011;35426;30.698;104.050;2023-12-28T08:55:30;310.27;;;119.30;;
17858;SDS011;35426;30.698;104.050;2023-12-28T08:58:07;317.20;;;119.00;;
17858;SDS011;35426;30.698;104.050;2023-12-28T09:00:42;304.50;;;117.40;;
17858;SDS011;35426;30.698;104.050;2023-12-28T09:03:16;313.50;;;115.00;;
17858;SDS011;35426;30.698;104.050;2023-12-28T09:05:52;313.63;;;114.00;;
17858;SDS011;35426;30.698;104.050;2023-12-28T09:08:26;287.93;;;106.70;;
17858;SDS011;35426;30.698;104.050;2023-12-28T09:11:06;311.00;;;116.40;;
17858;SDS011;35426;30.698;104.050;2023-12-28T09:13:42;302.27;;;115.73;;
17858;SDS011;35426;30.698;104.050;2023-12-28T09:16:17;307.50;;;112.13;;
17858;SDS011;35426;30.698;104.050;2023-12-28T09:18:50;278.33;;;108.20;;
17858;SDS011;35426;30.698;104.050;2023-12-28T09:21:24;292.50;;;108.03;;
17858;SDS011;35426;30.698;104.050;2023-12-28T09:23:58;298.40;;;112.50;;
17858;SDS011;35426;30.698;104.050;2023-12-28T09:26:34;295.87;;;113.43;;
17858;SDS011;35426;30.698;104.050;2023-12-28T09:29:08;309.83;;;113.47;;
17858;SDS011;35426;30.698;104.050;2023-12-28T09:31:42;311.97;;;113.40;;
17858;SDS011;35426;30.698;104.050;2023-12-28T09:34:19;282.53;;;112.03;;
17858;SDS011;35426;30.698;104.050;2023-12-28T09:36:53;305.60;;;115.50;;
17858;SDS011;35426;30.698;104.050;2023-12-28T09:39:33;306.53;;;113.10;;
17858;SDS011;35426;30.698;104.050;2023-12-28T09:42:11;302.03;;;110.90;;
17858;SDS011;35426;30.698;104.050;2023-12-28T09:44:49;299.80;;;111.23;;
17858;SDS011;35426;30.698;104.050;2023-12-28T09:47:24;293.13;;;110.90;;
17858;SDS011;35426;30.698;104.050;2023-12-28T09:49:58;290.23;;;111.23;;
17858;SDS011;35426;30.698;104.050;2023-12-28T09:52:31;288.27;;;110.53;;
17858;SDS011;35426;30.698;104.050;2023-12-28T09:55:06;301.77;;;109.00;;
17858;SDS011;35426;30.698;104.050;2023-12-28T09:57:43;298.63;;;112.33;;
17858;SDS011;35426;30.698;104.050;2023-12-28T10:00:18;287.97;;;109.37;;
17858;SDS011;35426;30.698;104.050;2023-12-28T10:02:53;282.03;;;106.87;;
17858;SDS011;35426;30.698;104.050;2023-12-28T10:05:27;291.53;;;107.77;;
17858;SDS011;35426;30.698;104.050;2023-12-28T10:08:01;258.63;;;102.47;;
17858;SDS011;35426;30.698;104.050;2023-12-28T10:10:36;281.50;;;104.60;;
17858;SDS011;35426;30.698;104.050;2023-12-28T10:13:13;279.93;;;103.63;;
17858;SDS011;35426;30.698;104.050;2023-12-28T10:15:48;260.50;;;98.83;;
17858;SDS011;35426;30.698;104.050;2023-12-28T10:18:22;269.00;;;100.23;;
17858;SDS011;35426;30.698;104.050;2023-12-28T10:20:57;249.83;;;97.60;;
17858;SDS011;35426;30.698;104.050;2023-12-28T10:23:32;253.37;;;98.67;;
17858;SDS011;35426;30.698;104.050;2023-12-28T10:26:07;262.10;;;101.83;;
17858;SDS011;35426;30.698;104.050;2023-12-28T10:28:42;280.73;;;107.33;;
17858;SDS011;35426;30.698;104.050;2023-12-28T10:31:16;271.50;;;101.63;;
17858;SDS011;35426;30.698;104.050;2023-12-28T10:33:51;281.83;;;106.17;;
17858;SDS011;35426;30.698;104.050;2023-12-28T10:36:27;265.77;;;100.53;;
17858;SDS011;35426;30.698;104.050;2023-12-28T10:39:05;275.07;;;99.07;;
17858;SDS011;35426;30.698;104.050;2023-12-28T10:41:43;262.33;;;99.40;;
17858;SDS011;35426;30.698;104.050;2023-12-28T10:44:23;265.97;;;97.77;;
17858;SDS011;35426;30.698;104.050;2023-12-28T10:47:02;269.57;;;100.83;;
17858;SDS011;35426;30.698;104.050;2023-12-28T10:49:41;268.83;;;100.00;;
17858;SDS011;35426;30.698;104.050;2023-12-28T10:52:17;265.83;;;98.97;;
17858;SDS011;35426;30.698;104.050;2023-12-28T10:54:54;247.13;;;98.83;;
17858;SDS011;35426;30.698;104.050;2023-12-28T10:57:39;271.00;;;100.93;;
17858;SDS011;35426;30.698;104.050;2023-12-28T11:00:22;268.17;;;99.97;;
17858;SDS011;35426;30.698;104.050;2023-12-28T11:02:58;270.77;;;101.70;;
17858;SDS011;35426;30.698;104.050;2023-12-28T11:05:36;267.97;;;101.13;;
17858;SDS011;35426;30.698;104.050;2023-12-28T11:08:13;269.90;;;98.93;;
17858;SDS011;35426;30.698;104.050;2023-12-28T11:10:48;264.97;;;100.10;;
17858;SDS011;35426;30.698;104.050;2023-12-28T11:13:23;269.80;;;101.17;;
17858;SDS011;35426;30.698;104.050;2023-12-28T11:15:59;256.97;;;96.90;;
17858;SDS011;35426;30.698;104.050;2023-12-28T11:18:34;276.83;;;100.90;;
17858;SDS011;35426;30.698;104.050;2023-12-28T11:21:08;269.50;;;99.70;;
17858;SDS011;35426;30.698;104.050;2023-12-28T11:23:42;270.80;;;100.17;;
17858;SDS011;35426;30.698;104.050;2023-12-28T11:26:20;266.40;;;98.10;;
17858;SDS011;35426;30.698;104.050;2023-12-28T11:29:00;266.23;;;98.40;;
17858;SDS011;35426;30.698;104.050;2023-12-28T11:31:37;274.77;;;100.33;;
17858;SDS011;35426;30.698;104.050;2023-12-28T11:34:11;278.13;;;101.33;;
17858;SDS011;35426;30.698;104.050;2023-12-28T11:36:48;272.63;;;99.47;;
17858;SDS011;35426;30.698;104.050;2023-12-28T11:39:29;271.50;;;99.90;;
17858;SDS011;35426;30.698;104.050;2023-12-28T11:42:05;281.03;;;104.13;;
17858;SDS011;35426;30.698;104.050;2023-12-28T11:44:40;271.67;;;99.97;;
17858;SDS011;35426;30.698;104.050;2023-12-28T11:47:17;274.53;;;102.43;;
17858;SDS011;35426;30.698;104.050;2023-12-28T11:50:06;284.57;;;104.40;;
17858;SDS011;35426;30.698;104.050;2023-12-28T11:52:44;279.53;;;103.73;;
17858;SDS011;35426;30.698;104.050;2023-12-28T11:55:23;284.63;;;104.00;;
17858;SDS011;35426;30.698;104.050;2023-12-28T11:57:57;283.80;;;106.73;;
17858;SDS011;35426;30.698;104.050;2023-12-28T12:00:31;285.20;;;106.30;;
17858;SDS011;35426;30.698;104.050;2023-12-28T12:03:10;275.53;;;105.73;;
17858;SDS011;35426;30.698;104.050;2023-12-28T12:05:45;277.87;;;106.17;;
17858;SDS011;35426;30.698;104.050;2023-12-28T12:08:19;286.53;;;105.27;;
17858;SDS011;35426;30.698;104.050;2023-12-28T12:11:00;294.83;;;110.60;;
17858;SDS011;35426;30.698;104.050;2023-12-28T12:13:35;286.80;;;105.80;;
17858;SDS011;35426;30.698;104.050;2023-12-28T12:16:10;290.77;;;109.17;;
17858;SDS011;35426;30.698;104.050;2023-12-28T12:18:50;292.73;;;108.30;;
17858;SDS011;35426;30.698;104.050;2023-12-28T12:21:26;302.23;;;111.07;;
17858;SDS011;35426;30.698;104.050;2023-12-28T12:24:00;295.67;;;108.73;;
17858;SDS011;35426;30.698;104.050;2023-12-28T12:26:34;297.57;;;109.77;;
17858;SDS011;35426;30.698;104.050;2023-12-28T12:29:08;290.37;;;110.30;;
17858;SDS011;35426;30.698;104.050;2023-12-28T12:31:42;303.57;;;111.33;;
17858;SDS011;35426;30.698;104.050;2023-12-28T12:34:20;290.53;;;110.77;;
17858;SDS011;35426;30.698;104.050;2023-12-28T12:36:54;291.37;;;109.10;;
17858;SDS011;35426;30.698;104.050;2023-12-28T12:39:29;294.17;;;110.20;;
17858;SDS011;35426;30.698;104.050;2023-12-28T12:42:04;303.37;;;110.07;;
17858;SDS011;35426;30.698;104.050;2023-12-28T12:44:39;305.20;;;110.03;;
17858;SDS011;35426;30.698;104.050;2023-12-28T12:47:15;296.37;;;109.97;;
17858;SDS011;35426;30.698;104.050;2023-12-28T12:49:55;290.20;;;111.33;;
17858;SDS011;35426;30.698;104.050;2023-12-28T12:52:31;291.80;;;110.63;;
17858;SDS011;35426;30.698;104.050;2023-12-28T12:55:05;298.57;;;112.10;;
17858;SDS011;35426;30.698;104.050;2023-12-28T12:57:42;306.10;;;113.30;;
17858;SDS011;35426;30.698;104.050;2023-12-28T13:00:17;308.67;;;112.97;;
17858;SDS011;35426;30.698;104.050;2023-12-28T13:02:51;293.60;;;111.60;;
17858;SDS011;35426;30.698;104.050;2023-12-28T13:05:28;307.47;;;113.80;;
17858;SDS011;35426;30.698;104.050;2023-12-28T13:08:02;311.07;;;113.97;;
17858;SDS011;35426;30.698;104.050;2023-12-28T13:10:36;322.40;;;114.57;;
17858;SDS011;35426;30.698;104.050;2023-12-28T13:13:13;300.90;;;113.00;;
17858;SDS011;35426;30.698;104.050;2023-12-28T13:15:47;304.97;;;114.27;;
17858;SDS011;35426;30.698;104.050;2023-12-28T13:18:21;304.87;;;115.30;;
17858;SDS011;35426;30.698;104.050;2023-12-28T13:20:58;305.30;;;112.20;;
17858;SDS011;35426;30.698;104.050;2023-12-28T13:23:32;301.17;;;112.97;;
17858;SDS011;35426;30.698;104.050;2023-12-28T13:26:06;307.03;;;112.60;;
17858;SDS011;35426;30.698;104.050;2023-12-28T13:28:41;323.73;;;116.57;;
17858;SDS011;35426;30.698;104.050;2023-12-28T13:31:15;319.23;;;116.73;;
17858;SDS011;35426;30.698;104.050;2023-12-28T13:33:50;320.87;;;117.00;;
17858;SDS011;35426;30.698;104.050;2023-12-28T13:36:25;322.83;;;116.93;;
17858;SDS011;35426;30.698;104.050;2023-12-28T13:38:59;305.20;;;114.13;;
17858;SDS011;35426;30.698;104.050;2023-12-28T13:41:34;315.17;;;116.53;;
17858;SDS011;35426;30.698;104.050;2023-12-28T13:44:08;309.37;;;117.27;;
17858;SDS011;35426;30.698;104.050;2023-12-28T13:46:42;327.50;;;122.50;;
17858;SDS011;35426;30.698;104.050;2023-12-28T13:49:19;328.20;;;118.80;;
17858;SDS011;35426;30.698;104.050;2023-12-28T13:51:57;329.37;;;121.37;;
17858;SDS011;35426;30.698;104.050;2023-12-28T13:54:31;316.03;;;121.43;;
17858;SDS011;35426;30.698;104.050;2023-12-28T13:57:05;340.70;;;124.60;;
17858;SDS011;35426;30.698;104.050;2023-12-28T13:59:40;339.00;;;120.97;;
17858;SDS011;35426;30.698;104.050;2023-12-28T14:02:14;334.70;;;123.30;;
17858;SDS011;35426;30.698;104.050;2023-12-28T14:04:47;345.47;;;125.83;;
17858;SDS011;35426;30.698;104.050;2023-12-28T14:07:26;354.17;;;125.37;;
17858;SDS011;35426;30.698;104.050;2023-12-28T14:10:01;334.10;;;124.53;;
17858;SDS011;35426;30.698;104.050;2023-12-28T14:12:39;320.07;;;120.27;;
17858;SDS011;35426;30.698;104.050;2023-12-28T14:15:16;344.80;;;128.63;;
17858;SDS011;35426;30.698;104.050;2023-12-28T14:17:50;333.63;;;124.23;;
17858;SDS011;35426;30.698;104.050;2023-12-28T14:20:24;324.77;;;124.60;;